Cse Prosperity Expr. — 3EES5 — position and weather

sailwx.info

Track history (hours):
 
Tides and Currents Weather Stations Pressure Air Temp Water Temp Dewpoint Dewpoint Depression Visibility Wind Speed Wind Dir Waves Ship Positions

Cse Prosperity Expr.

Last reported at 2017-Apr-24 08:37 UTC. Time now 2017-Apr-25 14:41 UTC.
Position N 24°15' E 120°19'.

Length 168 m; draft 5.6 m.

Type: Cargo ship. MMSI: 371801000.

Date/timePositionNaut miles runAvg speedWind from/ knotsBaromVisibWave heightAir tempDewpointWater temp
2017-Apr-24 08:37N 24°15' E 120°19'8812.2
2017-Apr-24 01:24N 22°47' E 120°07'512.9
2017-Apr-24 01:00N 22°43' E 120°10'611.7
2017-Apr-24 00:30N 22°38' E 120°13'4 8.8
2017-Apr-24 00:00N 22°37' E 120°18'1 1.0
2017-Apr-23 23:28N 22°36' E 120°18'0 0.0
2017-Apr-23 22:58N 22°36' E 120°18'0 0.0
2017-Apr-23 22:25N 22°36' E 120°18'0 0.0
2017-Apr-23 21:58N 22°36' E 120°18'0 0.0
2017-Apr-23 21:28N 22°36' E 120°18'0 0.0
2017-Apr-23 20:58N 22°36' E 120°18'0 0.0
2017-Apr-23 20:25N 22°36' E 120°18'0 0.0
2017-Apr-23 19:58N 22°36' E 120°18'0 0.0
2017-Apr-23 19:28N 22°36' E 120°18'0 0.0
2017-Apr-23 18:58N 22°36' E 120°18'0 0.0
2017-Apr-23 18:28N 22°36' E 120°18'0 0.0
2017-Apr-23 17:52N 22°36' E 120°18'0 0.0
2017-Apr-23 17:28N 22°36' E 120°18'0 0.0
2017-Apr-23 16:58N 22°36' E 120°18'0 0.0
2017-Apr-23 16:28N 22°36' E 120°18'0 0.0
2017-Apr-23 15:58N 22°36' E 120°18'0 0.0
2017-Apr-23 15:28N 22°36' E 120°18'0 0.0
2017-Apr-23 14:58N 22°36' E 120°18'0 0.0
2017-Apr-23 13:58N 22°36' E 120°18'0 0.0
2017-Apr-23 13:28N 22°36' E 120°18'0 0.0
2017-Apr-23 12:58N 22°36' E 120°18'0 0.0
2017-Apr-23 12:22N 22°36' E 120°18'0 0.0
2017-Apr-23 11:52N 22°36' E 120°18'0 0.0
2017-Apr-23 11:22N 22°36' E 120°18'0 0.0
2017-Apr-23 10:58N 22°36' E 120°18'0 0.0
2017-Apr-23 10:28N 22°36' E 120°18'0 0.0
2017-Apr-23 09:58N 22°36' E 120°18'0 0.0
2017-Apr-23 09:25N 22°36' E 120°18'0 0.0
2017-Apr-23 08:58N 22°36' E 120°18'0 0.0
2017-Apr-23 08:28N 22°36' E 120°18'0 0.0
2017-Apr-23 07:49N 22°36' E 120°18'0 0.0
2017-Apr-23 07:28N 22°36' E 120°18'0 0.0
2017-Apr-23 06:58N 22°36' E 120°18'0 0.0
2017-Apr-23 05:31N 22°36' E 120°18'0 0.0
2017-Apr-23 05:16N 22°36' E 120°18'0 0.0
2017-Apr-23 04:34N 22°36' E 120°18'0 0.0
2017-Apr-23 03:19N 22°36' E 120°18'0 0.0
2017-Apr-23 02:46N 22°36' E 120°18'0 0.0
2017-Apr-23 02:19N 22°36' E 120°18'0 0.0
2017-Apr-23 01:55N 22°36' E 120°18'0 0.0
2017-Apr-23 01:28N 22°36' E 120°18'0 0.0
2017-Apr-23 00:58N 22°36' E 120°18'0 0.0
2017-Apr-23 00:28N 22°36' E 120°18'0 0.0
2017-Apr-22 23:58N 22°36' E 120°18'1 1.7
2017-Apr-22 23:30N 22°37' E 120°17'3 6.9
2017-Apr-22 23:00N 22°37' E 120°14'3 6.4
2017-Apr-22 22:30N 22°38' E 120°10'5 9.1
2017-Apr-22 22:01N 22°39' E 120°05'5 9.8
2017-Apr-22 21:31N 22°42' E 120°01'611.0
2017-Apr-22 21:00N 22°47' E 120°00'5 9.9
2017-Apr-22 20:29N 22°52' E 119°58'  
2017-Apr-19 02:29N 33°60' E 134°58'612.9
2017-Apr-19 02:00N 34°06' E 134°60'612.5
2017-Apr-19 01:30N 34°12' E 135°03'4 8.6
2017-Apr-19 01:00N 34°14' E 135°07'0 0.6
2017-Apr-19 00:15N 34°14' E 135°07'0 0.0
2017-Apr-18 23:54N 34°14' E 135°07'0 0.0
2017-Apr-18 23:27N 34°14' E 135°07'0 0.0
2017-Apr-18 23:00N 34°14' E 135°07'0 0.0
2017-Apr-18 22:21N 34°14' E 135°07'0 0.0
2017-Apr-18 22:00N 34°14' E 135°07'0 0.0
2017-Apr-18 21:30N 34°14' E 135°07'0 0.0
2017-Apr-18 21:00N 34°14' E 135°07'0 0.0
2017-Apr-18 20:30N 34°14' E 135°07'0 0.0
2017-Apr-18 20:00N 34°14' E 135°07'0 0.0
2017-Apr-18 19:27N 34°14' E 135°07'0 0.0
2017-Apr-18 19:00N 34°14' E 135°07'0 0.0
2017-Apr-18 18:30N 34°14' E 135°07'0 0.0
2017-Apr-18 18:00N 34°14' E 135°07'0 0.0
2017-Apr-18 17:30N 34°14' E 135°07'0 0.0
2017-Apr-18 17:00N 34°14' E 135°07'0 0.0
2017-Apr-18 16:30N 34°14' E 135°07'0 0.0
2017-Apr-18 16:00N 34°14' E 135°07'0 0.0
2017-Apr-18 15:29N 34°14' E 135°07'0 0.0
2017-Apr-18 15:00N 34°14' E 135°07'0 0.0
2017-Apr-18 14:30N 34°14' E 135°07'0 0.0
2017-Apr-18 13:30N 34°14' E 135°07'0 0.0
2017-Apr-18 13:00N 34°14' E 135°07'0 0.0
2017-Apr-18 12:30N 34°14' E 135°07'0 0.0
2017-Apr-18 12:00N 34°14' E 135°07'0 0.0
2017-Apr-18 11:30N 34°14' E 135°07'0 0.0
2017-Apr-18 11:00N 34°14' E 135°07'0 0.0
2017-Apr-18 10:27N 34°14' E 135°07'0 0.0
2017-Apr-18 10:00N 34°14' E 135°07'0 0.0
2017-Apr-18 09:27N 34°14' E 135°07'0 0.0
2017-Apr-18 09:00N 34°14' E 135°07'0 0.0
2017-Apr-18 08:30N 34°14' E 135°07'0 0.0
2017-Apr-18 08:00N 34°14' E 135°07'0 0.0
2017-Apr-18 07:30N 34°14' E 135°07'0 0.0
2017-Apr-18 07:00N 34°14' E 135°07'0 0.0
2017-Apr-18 05:39N 34°14' E 135°07'0 0.0
2017-Apr-18 05:24N 34°14' E 135°07'0 0.0
2017-Apr-18 05:00N 34°14' E 135°07'0 0.0
2017-Apr-18 04:30N 34°14' E 135°07'0 0.0
2017-Apr-18 04:00N 34°14' E 135°07'0 0.0
2017-Apr-18 03:30N 34°14' E 135°07'0 0.0
2017-Apr-18 03:00N 34°14' E 135°07'0 0.0
2017-Apr-18 02:30N 34°14' E 135°07'0 0.0
2017-Apr-18 02:00N 34°14' E 135°07'0 0.0
2017-Apr-18 01:30N 34°14' E 135°07'0 0.0
2017-Apr-18 01:00N 34°14' E 135°07'0 0.0
2017-Apr-18 00:29N 34°14' E 135°07'0 0.0
2017-Apr-17 23:59N 34°14' E 135°07'0 0.0
2017-Apr-17 23:30N 34°14' E 135°07'0 0.0
2017-Apr-17 23:00N 34°14' E 135°07'0 0.0
2017-Apr-17 22:30N 34°14' E 135°07'0 0.0
2017-Apr-17 22:00N 34°14' E 135°07'0 0.0
2017-Apr-17 21:30N 34°14' E 135°07'0 0.0
2017-Apr-17 21:00N 34°14' E 135°07'0 0.0
2017-Apr-17 20:30N 34°14' E 135°07'0 0.0
2017-Apr-17 20:00N 34°14' E 135°07'0 0.0
2017-Apr-17 19:30N 34°14' E 135°07'0 0.0
2017-Apr-17 19:00N 34°14' E 135°07'0 0.0
2017-Apr-17 18:30N 34°14' E 135°07'0 0.0
2017-Apr-17 18:00N 34°14' E 135°07'0 0.0
2017-Apr-17 17:30N 34°14' E 135°07'0 0.0
2017-Apr-17 17:00N 34°14' E 135°07'0 0.0
2017-Apr-17 16:30N 34°14' E 135°07'0 0.0
2017-Apr-17 16:00N 34°14' E 135°07'0 0.0
2017-Apr-17 15:30N 34°14' E 135°07'0 0.0
2017-Apr-17 15:00N 34°14' E 135°07'0 0.0
2017-Apr-17 14:30N 34°14' E 135°07'0 0.0
2017-Apr-17 13:30N 34°14' E 135°07'0 0.0
2017-Apr-17 13:00N 34°14' E 135°07'0 0.0
2017-Apr-17 12:24N 34°14' E 135°07'0 0.0
2017-Apr-17 12:00N 34°14' E 135°07'0 0.0
2017-Apr-17 11:30N 34°14' E 135°07'0 0.0
2017-Apr-17 11:00N 34°14' E 135°07'0 0.0
2017-Apr-17 10:30N 34°14' E 135°07'0 0.0
2017-Apr-17 10:00N 34°14' E 135°07'0 0.0
2017-Apr-17 09:30N 34°14' E 135°07'0 0.0
2017-Apr-17 09:00N 34°14' E 135°07'0 0.0
2017-Apr-17 08:30N 34°14' E 135°07'0 0.0
2017-Apr-17 07:54N 34°14' E 135°07'0 0.0
2017-Apr-17 07:30N 34°14' E 135°07'0 0.0
2017-Apr-17 07:00N 34°14' E 135°07'0 0.0
2017-Apr-17 06:30N 34°14' E 135°07'0 0.0
2017-Apr-17 06:00N 34°14' E 135°07'0 0.0
2017-Apr-17 05:30N 34°14' E 135°07'0 0.0
2017-Apr-17 05:00N 34°14' E 135°07'0 0.0
2017-Apr-17 04:30N 34°14' E 135°07'0 0.0
2017-Apr-17 04:00N 34°14' E 135°07'0 0.0
2017-Apr-17 03:30N 34°14' E 135°07'0 0.0
2017-Apr-17 03:00N 34°14' E 135°07'0 0.0
2017-Apr-17 02:30N 34°14' E 135°07'0 0.0
2017-Apr-17 02:00N 34°14' E 135°07'0 0.0
2017-Apr-17 01:30N 34°14' E 135°07'0 0.0
2017-Apr-17 01:00N 34°14' E 135°07'0 0.0
2017-Apr-17 00:30N 34°14' E 135°07'0 0.0
2017-Apr-17 00:00N 34°14' E 135°07'0 0.0
2017-Apr-16 23:27N 34°14' E 135°07'0 0.0
2017-Apr-16 23:00N 34°14' E 135°07'0 0.0
2017-Apr-16 22:30N 34°14' E 135°07'0 0.0
2017-Apr-16 22:00N 34°14' E 135°07'0 0.0
2017-Apr-16 21:27N 34°14' E 135°07'0 0.0
2017-Apr-16 21:00N 34°14' E 135°07'0 0.0
2017-Apr-16 20:27N 34°14' E 135°07'0 0.0
2017-Apr-16 20:00N 34°14' E 135°07'0 0.0
2017-Apr-16 19:30N 34°14' E 135°07'0 0.0
2017-Apr-16 18:57N 34°14' E 135°07'0 0.0
2017-Apr-16 18:30N 34°14' E 135°07'0 0.0
2017-Apr-16 17:57N 34°14' E 135°07'0 0.0
2017-Apr-16 17:27N 34°14' E 135°07'0 0.0
2017-Apr-16 16:51N 34°14' E 135°07'0 0.0
2017-Apr-16 16:27N 34°14' E 135°07'0 0.0
2017-Apr-16 15:57N 34°14' E 135°07'0 0.0
2017-Apr-16 15:27N 34°14' E 135°07'0 0.0
2017-Apr-16 15:00N 34°14' E 135°07'0 0.0
2017-Apr-16 13:57N 34°14' E 135°07'0 0.0
2017-Apr-16 13:27N 34°14' E 135°07'0 0.0
2017-Apr-16 12:57N 34°14' E 135°07'0 0.0
2017-Apr-16 12:27N 34°14' E 135°07'0 0.0
2017-Apr-16 11:57N 34°14' E 135°07'0 0.0
2017-Apr-16 11:27N 34°14' E 135°07'0 0.0
2017-Apr-16 10:57N 34°14' E 135°07'0 0.0
2017-Apr-16 10:30N 34°14' E 135°07'0 0.0
2017-Apr-16 09:57N 34°14' E 135°07'0 0.0
2017-Apr-16 09:30N 34°14' E 135°07'0 0.0
2017-Apr-16 09:00N 34°14' E 135°07'0 0.0
2017-Apr-16 08:27N 34°14' E 135°07'0 0.0
2017-Apr-16 08:00N 34°14' E 135°07'0 0.0
2017-Apr-16 07:30N 34°14' E 135°07'0 0.0
2017-Apr-16 07:00N 34°14' E 135°07'0 0.0
2017-Apr-16 06:29N 34°14' E 135°07'0 0.0
2017-Apr-16 06:00N 34°14' E 135°07'0 0.0
2017-Apr-16 05:30N 34°14' E 135°07'0 0.0
2017-Apr-16 05:00N 34°14' E 135°07'0 0.0
2017-Apr-16 04:30N 34°14' E 135°07'0 0.0
2017-Apr-16 04:00N 34°14' E 135°07'0 0.0
2017-Apr-16 03:30N 34°14' E 135°07'0 0.0
2017-Apr-16 03:00N 34°14' E 135°07'0 0.0
2017-Apr-16 02:30N 34°14' E 135°07'0 0.0
2017-Apr-16 02:00N 34°14' E 135°07'0 0.0
2017-Apr-16 01:30N 34°14' E 135°07'0 0.0
2017-Apr-16 01:00N 34°14' E 135°07'0 0.0
2017-Apr-16 00:30N 34°14' E 135°07'0 0.0
2017-Apr-15 23:57N 34°14' E 135°07'0 0.0
2017-Apr-15 23:30N 34°14' E 135°07'0 0.0
2017-Apr-15 22:59N 34°14' E 135°07'0 0.0
2017-Apr-15 22:30N 34°14' E 135°07'0 0.0
2017-Apr-15 22:00N 34°14' E 135°07'0 0.0
2017-Apr-15 21:30N 34°14' E 135°07'0 0.0
2017-Apr-15 21:00N 34°14' E 135°07'0 0.0
2017-Apr-15 20:30N 34°14' E 135°07'0 0.0
2017-Apr-15 19:57N 34°14' E 135°07'0 0.0
2017-Apr-15 19:30N 34°14' E 135°07'0 0.0
2017-Apr-15 19:00N 34°14' E 135°07'0 0.0
2017-Apr-15 18:30N 34°14' E 135°07'0 0.0
2017-Apr-15 18:00N 34°14' E 135°07'0 0.0
2017-Apr-15 17:30N 34°14' E 135°07'0 0.0
2017-Apr-15 16:57N 34°14' E 135°07'0 0.0
2017-Apr-15 16:30N 34°14' E 135°07'0 0.0
2017-Apr-15 15:54N 34°14' E 135°07'0 0.0
2017-Apr-15 15:30N 34°14' E 135°07'0 0.0
2017-Apr-15 15:00N 34°14' E 135°07'0 0.0
2017-Apr-15 14:30N 34°14' E 135°07'0 0.0
2017-Apr-15 13:30N 34°14' E 135°07'0 0.0
2017-Apr-15 13:00N 34°14' E 135°07'0 0.0
2017-Apr-15 12:30N 34°14' E 135°07'0 0.0
2017-Apr-15 12:00N 34°14' E 135°07'0 0.0
2017-Apr-15 11:30N 34°14' E 135°07'0 0.0
2017-Apr-15 11:00N 34°14' E 135°07'0 0.0
2017-Apr-15 10:26N 34°14' E 135°07'0 0.0
2017-Apr-15 09:57N 34°14' E 135°07'0 0.0
2017-Apr-15 09:30N 34°14' E 135°07'0 0.0
2017-Apr-15 08:59N 34°14' E 135°07'0 0.0
2017-Apr-15 08:30N 34°14' E 135°07'0 0.0
2017-Apr-15 07:57N 34°14' E 135°07'0 0.0
2017-Apr-15 07:27N 34°14' E 135°07'0 0.0
2017-Apr-15 07:00N 34°14' E 135°07'0 0.0
2017-Apr-15 06:24N 34°14' E 135°07'0 0.0
2017-Apr-15 05:39N 34°14' E 135°07'0 0.0
2017-Apr-15 05:30N 34°14' E 135°07'0 0.0
2017-Apr-15 05:00N 34°14' E 135°07'0 0.0
2017-Apr-15 04:30N 34°14' E 135°07'0 0.0
2017-Apr-15 04:00N 34°14' E 135°07'0 0.0
2017-Apr-15 03:29N 34°14' E 135°07'0 0.0
2017-Apr-15 03:00N 34°14' E 135°07'0 0.0
2017-Apr-15 02:30N 34°14' E 135°07'0 0.0
2017-Apr-15 02:00N 34°14' E 135°07'0 0.0
2017-Apr-15 01:30N 34°14' E 135°07'0 0.0
2017-Apr-15 01:00N 34°14' E 135°07'0 0.0
2017-Apr-15 00:30N 34°14' E 135°07'0 0.0
2017-Apr-14 23:57N 34°14' E 135°07'0 0.0
2017-Apr-14 23:24N 34°14' E 135°07'0 0.0
2017-Apr-14 23:00N 34°14' E 135°07'0 0.0
2017-Apr-14 22:27N 34°14' E 135°07'0 0.0
2017-Apr-14 22:00N 34°14' E 135°07'0 0.0
2017-Apr-14 21:30N 34°14' E 135°07'0 0.0
2017-Apr-14 20:51N 34°14' E 135°07'0 0.0
2017-Apr-14 20:27N 34°14' E 135°07'0 0.0
2017-Apr-14 19:51N 34°14' E 135°07'0 0.0
2017-Apr-14 19:30N 34°14' E 135°07'0 0.0
2017-Apr-14 19:00N 34°14' E 135°07'0 0.0
2017-Apr-14 18:30N 34°14' E 135°07'0 0.0
2017-Apr-14 18:00N 34°14' E 135°07'0 0.0
2017-Apr-14 17:30N 34°14' E 135°07'0 0.0
2017-Apr-14 17:00N 34°14' E 135°07'0 0.0
2017-Apr-14 16:30N 34°14' E 135°07'0 0.0
2017-Apr-14 16:00N 34°14' E 135°07'0 0.0
2017-Apr-14 15:30N 34°14' E 135°07'0 0.0
2017-Apr-14 15:00N 34°14' E 135°07'0 0.0
2017-Apr-14 14:30N 34°14' E 135°07'0 0.0
2017-Apr-14 13:30N 34°14' E 135°07'0 0.0
2017-Apr-14 13:00N 34°14' E 135°07'0 0.0
2017-Apr-14 12:30N 34°14' E 135°07'0 0.0
2017-Apr-14 11:59N 34°14' E 135°07'0 0.0
2017-Apr-14 11:30N 34°14' E 135°07'0 0.0
2017-Apr-14 11:00N 34°14' E 135°07'0 0.0
2017-Apr-14 10:30N 34°14' E 135°07'0 0.0
2017-Apr-14 10:00N 34°14' E 135°07'0 0.0
2017-Apr-14 09:27N 34°14' E 135°07'0 0.0
2017-Apr-14 09:00N 34°14' E 135°07'  
Track history (hours):
 
Tides and Currents Weather Stations Pressure Air Temp Water Temp Dewpoint Dewpoint Depression Visibility Wind Speed Wind Dir Waves Ship Positions

Cse Prosperity Expr.

Last reported at 2017-Apr-24 08:37 UTC. Time now 2017-Apr-25 14:41 UTC.
Position N 24°15' E 120°19'.

Length 168 m; draft 5.6 m.

Type: Cargo ship. MMSI: 371801000.

Date/timePositionNaut miles runAvg speedWind from/ knotsBaromVisibWave heightAir tempDewpointWater temp
2017-Apr-24 08:37N 24°15' E 120°19'8812.2
2017-Apr-24 01:24N 22°47' E 120°07'512.9
2017-Apr-24 01:00N 22°43' E 120°10'611.7
2017-Apr-24 00:30N 22°38' E 120°13'4 8.8
2017-Apr-24 00:00N 22°37' E 120°18'1 1.0
2017-Apr-23 23:28N 22°36' E 120°18'0 0.0
2017-Apr-23 22:58N 22°36' E 120°18'0 0.0
2017-Apr-23 22:25N 22°36' E 120°18'0 0.0
2017-Apr-23 21:58N 22°36' E 120°18'0 0.0
2017-Apr-23 21:28N 22°36' E 120°18'0 0.0
2017-Apr-23 20:58N 22°36' E 120°18'0 0.0
2017-Apr-23 20:25N 22°36' E 120°18'0 0.0
2017-Apr-23 19:58N 22°36' E 120°18'0 0.0
2017-Apr-23 19:28N 22°36' E 120°18'0 0.0
2017-Apr-23 18:58N 22°36' E 120°18'0 0.0
2017-Apr-23 18:28N 22°36' E 120°18'0 0.0
2017-Apr-23 17:52N 22°36' E 120°18'0 0.0
2017-Apr-23 17:28N 22°36' E 120°18'0 0.0
2017-Apr-23 16:58N 22°36' E 120°18'0 0.0
2017-Apr-23 16:28N 22°36' E 120°18'0 0.0
2017-Apr-23 15:58N 22°36' E 120°18'0 0.0
2017-Apr-23 15:28N 22°36' E 120°18'0 0.0
2017-Apr-23 14:58N 22°36' E 120°18'0 0.0
2017-Apr-23 13:58N 22°36' E 120°18'0 0.0
2017-Apr-23 13:28N 22°36' E 120°18'0 0.0
2017-Apr-23 12:58N 22°36' E 120°18'0 0.0
2017-Apr-23 12:22N 22°36' E 120°18'0 0.0
2017-Apr-23 11:52N 22°36' E 120°18'0 0.0
2017-Apr-23 11:22N 22°36' E 120°18'0 0.0
2017-Apr-23 10:58N 22°36' E 120°18'0 0.0
2017-Apr-23 10:28N 22°36' E 120°18'0 0.0
2017-Apr-23 09:58N 22°36' E 120°18'0 0.0
2017-Apr-23 09:25N 22°36' E 120°18'0 0.0
2017-Apr-23 08:58N 22°36' E 120°18'0 0.0
2017-Apr-23 08:28N 22°36' E 120°18'0 0.0
2017-Apr-23 07:49N 22°36' E 120°18'0 0.0
2017-Apr-23 07:28N 22°36' E 120°18'0 0.0
2017-Apr-23 06:58N 22°36' E 120°18'0 0.0
2017-Apr-23 05:31N 22°36' E 120°18'0 0.0
2017-Apr-23 05:16N 22°36' E 120°18'0 0.0
2017-Apr-23 04:34N 22°36' E 120°18'0 0.0
2017-Apr-23 03:19N 22°36' E 120°18'0 0.0
2017-Apr-23 02:46N 22°36' E 120°18'0 0.0
2017-Apr-23 02:19N 22°36' E 120°18'0 0.0
2017-Apr-23 01:55N 22°36' E 120°18'0 0.0
2017-Apr-23 01:28N 22°36' E 120°18'0 0.0
2017-Apr-23 00:58N 22°36' E 120°18'0 0.0
2017-Apr-23 00:28N 22°36' E 120°18'0 0.0
2017-Apr-22 23:58N 22°36' E 120°18'1 1.7
2017-Apr-22 23:30N 22°37' E 120°17'3 6.9
2017-Apr-22 23:00N 22°37' E 120°14'3 6.4
2017-Apr-22 22:30N 22°38' E 120°10'5 9.1
2017-Apr-22 22:01N 22°39' E 120°05'5 9.8
2017-Apr-22 21:31N 22°42' E 120°01'611.0
2017-Apr-22 21:00N 22°47' E 120°00'5 9.9
2017-Apr-22 20:29N 22°52' E 119°58'  
2017-Apr-19 02:29N 33°60' E 134°58'612.9
2017-Apr-19 02:00N 34°06' E 134°60'612.5
2017-Apr-19 01:30N 34°12' E 135°03'4 8.6
2017-Apr-19 01:00N 34°14' E 135°07'0 0.6
2017-Apr-19 00:15N 34°14' E 135°07'0 0.0
2017-Apr-18 23:54N 34°14' E 135°07'0 0.0
2017-Apr-18 23:27N 34°14' E 135°07'0 0.0
2017-Apr-18 23:00N 34°14' E 135°07'0 0.0
2017-Apr-18 22:21N 34°14' E 135°07'0 0.0
2017-Apr-18 22:00N 34°14' E 135°07'0 0.0
2017-Apr-18 21:30N 34°14' E 135°07'0 0.0
2017-Apr-18 21:00N 34°14' E 135°07'0 0.0
2017-Apr-18 20:30N 34°14' E 135°07'0 0.0
2017-Apr-18 20:00N 34°14' E 135°07'0 0.0
2017-Apr-18 19:27N 34°14' E 135°07'0 0.0
2017-Apr-18 19:00N 34°14' E 135°07'0 0.0
2017-Apr-18 18:30N 34°14' E 135°07'0 0.0
2017-Apr-18 18:00N 34°14' E 135°07'0 0.0
2017-Apr-18 17:30N 34°14' E 135°07'0 0.0
2017-Apr-18 17:00N 34°14' E 135°07'0 0.0
2017-Apr-18 16:30N 34°14' E 135°07'0 0.0
2017-Apr-18 16:00N 34°14' E 135°07'0 0.0
2017-Apr-18 15:29N 34°14' E 135°07'0 0.0
2017-Apr-18 15:00N 34°14' E 135°07'0 0.0
2017-Apr-18 14:30N 34°14' E 135°07'0 0.0
2017-Apr-18 13:30N 34°14' E 135°07'0 0.0
2017-Apr-18 13:00N 34°14' E 135°07'0 0.0
2017-Apr-18 12:30N 34°14' E 135°07'0 0.0
2017-Apr-18 12:00N 34°14' E 135°07'0 0.0
2017-Apr-18 11:30N 34°14' E 135°07'0 0.0
2017-Apr-18 11:00N 34°14' E 135°07'0 0.0
2017-Apr-18 10:27N 34°14' E 135°07'0 0.0
2017-Apr-18 10:00N 34°14' E 135°07'0 0.0
2017-Apr-18 09:27N 34°14' E 135°07'0 0.0
2017-Apr-18 09:00N 34°14' E 135°07'0 0.0
2017-Apr-18 08:30N 34°14' E 135°07'0 0.0
2017-Apr-18 08:00N 34°14' E 135°07'0 0.0
2017-Apr-18 07:30N 34°14' E 135°07'0 0.0
2017-Apr-18 07:00N 34°14' E 135°07'0 0.0
2017-Apr-18 05:39N 34°14' E 135°07'0 0.0
2017-Apr-18 05:24N 34°14' E 135°07'0 0.0
2017-Apr-18 05:00N 34°14' E 135°07'0 0.0
2017-Apr-18 04:30N 34°14' E 135°07'0 0.0
2017-Apr-18 04:00N 34°14' E 135°07'0 0.0
2017-Apr-18 03:30N 34°14' E 135°07'0 0.0
2017-Apr-18 03:00N 34°14' E 135°07'0 0.0
2017-Apr-18 02:30N 34°14' E 135°07'0 0.0
2017-Apr-18 02:00N 34°14' E 135°07'0 0.0
2017-Apr-18 01:30N 34°14' E 135°07'0 0.0
2017-Apr-18 01:00N 34°14' E 135°07'0 0.0
2017-Apr-18 00:29N 34°14' E 135°07'0 0.0
2017-Apr-17 23:59N 34°14' E 135°07'0 0.0
2017-Apr-17 23:30N 34°14' E 135°07'0 0.0
2017-Apr-17 23:00N 34°14' E 135°07'0 0.0
2017-Apr-17 22:30N 34°14' E 135°07'0 0.0
2017-Apr-17 22:00N 34°14' E 135°07'0 0.0
2017-Apr-17 21:30N 34°14' E 135°07'0 0.0
2017-Apr-17 21:00N 34°14' E 135°07'0 0.0
2017-Apr-17 20:30N 34°14' E 135°07'0 0.0
2017-Apr-17 20:00N 34°14' E 135°07'0 0.0
2017-Apr-17 19:30N 34°14' E 135°07'0 0.0
2017-Apr-17 19:00N 34°14' E 135°07'0 0.0
2017-Apr-17 18:30N 34°14' E 135°07'0 0.0
2017-Apr-17 18:00N 34°14' E 135°07'0 0.0
2017-Apr-17 17:30N 34°14' E 135°07'0 0.0
2017-Apr-17 17:00N 34°14' E 135°07'0 0.0
2017-Apr-17 16:30N 34°14' E 135°07'0 0.0
2017-Apr-17 16:00N 34°14' E 135°07'0 0.0
2017-Apr-17 15:30N 34°14' E 135°07'0 0.0
2017-Apr-17 15:00N 34°14' E 135°07'0 0.0
2017-Apr-17 14:30N 34°14' E 135°07'0 0.0
2017-Apr-17 13:30N 34°14' E 135°07'0 0.0
2017-Apr-17 13:00N 34°14' E 135°07'0 0.0
2017-Apr-17 12:24N 34°14' E 135°07'0 0.0
2017-Apr-17 12:00N 34°14' E 135°07'0 0.0
2017-Apr-17 11:30N 34°14' E 135°07'0 0.0
2017-Apr-17 11:00N 34°14' E 135°07'0 0.0
2017-Apr-17 10:30N 34°14' E 135°07'0 0.0
2017-Apr-17 10:00N 34°14' E 135°07'0 0.0
2017-Apr-17 09:30N 34°14' E 135°07'0 0.0
2017-Apr-17 09:00N 34°14' E 135°07'0 0.0
2017-Apr-17 08:30N 34°14' E 135°07'0 0.0
2017-Apr-17 07:54N 34°14' E 135°07'0 0.0
2017-Apr-17 07:30N 34°14' E 135°07'0 0.0
2017-Apr-17 07:00N 34°14' E 135°07'0 0.0
2017-Apr-17 06:30N 34°14' E 135°07'0 0.0
2017-Apr-17 06:00N 34°14' E 135°07'0 0.0
2017-Apr-17 05:30N 34°14' E 135°07'0 0.0
2017-Apr-17 05:00N 34°14' E 135°07'0 0.0
2017-Apr-17 04:30N 34°14' E 135°07'0 0.0
2017-Apr-17 04:00N 34°14' E 135°07'0 0.0
2017-Apr-17 03:30N 34°14' E 135°07'0 0.0
2017-Apr-17 03:00N 34°14' E 135°07'0 0.0
2017-Apr-17 02:30N 34°14' E 135°07'0 0.0
2017-Apr-17 02:00N 34°14' E 135°07'0 0.0
2017-Apr-17 01:30N 34°14' E 135°07'0 0.0
2017-Apr-17 01:00N 34°14' E 135°07'0 0.0
2017-Apr-17 00:30N 34°14' E 135°07'0 0.0
2017-Apr-17 00:00N 34°14' E 135°07'0 0.0
2017-Apr-16 23:27N 34°14' E 135°07'0 0.0
2017-Apr-16 23:00N 34°14' E 135°07'0 0.0
2017-Apr-16 22:30N 34°14' E 135°07'0 0.0
2017-Apr-16 22:00N 34°14' E 135°07'0 0.0
2017-Apr-16 21:27N 34°14' E 135°07'0 0.0
2017-Apr-16 21:00N 34°14' E 135°07'0 0.0
2017-Apr-16 20:27N 34°14' E 135°07'0 0.0
2017-Apr-16 20:00N 34°14' E 135°07'0 0.0
2017-Apr-16 19:30N 34°14' E 135°07'0 0.0
2017-Apr-16 18:57N 34°14' E 135°07'0 0.0
2017-Apr-16 18:30N 34°14' E 135°07'0 0.0
2017-Apr-16 17:57N 34°14' E 135°07'0 0.0
2017-Apr-16 17:27N 34°14' E 135°07'0 0.0
2017-Apr-16 16:51N 34°14' E 135°07'0 0.0
2017-Apr-16 16:27N 34°14' E 135°07'0 0.0
2017-Apr-16 15:57N 34°14' E 135°07'0 0.0
2017-Apr-16 15:27N 34°14' E 135°07'0 0.0
2017-Apr-16 15:00N 34°14' E 135°07'0 0.0
2017-Apr-16 13:57N 34°14' E 135°07'0 0.0
2017-Apr-16 13:27N 34°14' E 135°07'0 0.0
2017-Apr-16 12:57N 34°14' E 135°07'0 0.0
2017-Apr-16 12:27N 34°14' E 135°07'0 0.0
2017-Apr-16 11:57N 34°14' E 135°07'0 0.0
2017-Apr-16 11:27N 34°14' E 135°07'0 0.0
2017-Apr-16 10:57N 34°14' E 135°07'0 0.0
2017-Apr-16 10:30N 34°14' E 135°07'0 0.0
2017-Apr-16 09:57N 34°14' E 135°07'0 0.0
2017-Apr-16 09:30N 34°14' E 135°07'0 0.0
2017-Apr-16 09:00N 34°14' E 135°07'0 0.0
2017-Apr-16 08:27N 34°14' E 135°07'0 0.0
2017-Apr-16 08:00N 34°14' E 135°07'0 0.0
2017-Apr-16 07:30N 34°14' E 135°07'0 0.0
2017-Apr-16 07:00N 34°14' E 135°07'0 0.0
2017-Apr-16 06:29N 34°14' E 135°07'0 0.0
2017-Apr-16 06:00N 34°14' E 135°07'0 0.0
2017-Apr-16 05:30N 34°14' E 135°07'0 0.0
2017-Apr-16 05:00N 34°14' E 135°07'0 0.0
2017-Apr-16 04:30N 34°14' E 135°07'0 0.0
2017-Apr-16 04:00N 34°14' E 135°07'0 0.0
2017-Apr-16 03:30N 34°14' E 135°07'0 0.0
2017-Apr-16 03:00N 34°14' E 135°07'0 0.0
2017-Apr-16 02:30N 34°14' E 135°07'0 0.0
2017-Apr-16 02:00N 34°14' E 135°07'0 0.0
2017-Apr-16 01:30N 34°14' E 135°07'0 0.0
2017-Apr-16 01:00N 34°14' E 135°07'0 0.0
2017-Apr-16 00:30N 34°14' E 135°07'0 0.0
2017-Apr-15 23:57N 34°14' E 135°07'0 0.0
2017-Apr-15 23:30N 34°14' E 135°07'0 0.0
2017-Apr-15 22:59N 34°14' E 135°07'0 0.0
2017-Apr-15 22:30N 34°14' E 135°07'0 0.0
2017-Apr-15 22:00N 34°14' E 135°07'0 0.0
2017-Apr-15 21:30N 34°14' E 135°07'0 0.0
2017-Apr-15 21:00N 34°14' E 135°07'0 0.0
2017-Apr-15 20:30N 34°14' E 135°07'0 0.0
2017-Apr-15 19:57N 34°14' E 135°07'0 0.0
2017-Apr-15 19:30N 34°14' E 135°07'0 0.0
2017-Apr-15 19:00N 34°14' E 135°07'0 0.0
2017-Apr-15 18:30N 34°14' E 135°07'0 0.0
2017-Apr-15 18:00N 34°14' E 135°07'0 0.0
2017-Apr-15 17:30N 34°14' E 135°07'0 0.0
2017-Apr-15 16:57N 34°14' E 135°07'0 0.0
2017-Apr-15 16:30N 34°14' E 135°07'0 0.0
2017-Apr-15 15:54N 34°14' E 135°07'0 0.0
2017-Apr-15 15:30N 34°14' E 135°07'0 0.0
2017-Apr-15 15:00N 34°14' E 135°07'0 0.0
2017-Apr-15 14:30N 34°14' E 135°07'0 0.0
2017-Apr-15 13:30N 34°14' E 135°07'0 0.0
2017-Apr-15 13:00N 34°14' E 135°07'0 0.0
2017-Apr-15 12:30N 34°14' E 135°07'0 0.0
2017-Apr-15 12:00N 34°14' E 135°07'0 0.0
2017-Apr-15 11:30N 34°14' E 135°07'0 0.0
2017-Apr-15 11:00N 34°14' E 135°07'0 0.0
2017-Apr-15 10:26N 34°14' E 135°07'0 0.0
2017-Apr-15 09:57N 34°14' E 135°07'0 0.0
2017-Apr-15 09:30N 34°14' E 135°07'0 0.0
2017-Apr-15 08:59N 34°14' E 135°07'0 0.0
2017-Apr-15 08:30N 34°14' E 135°07'0 0.0
2017-Apr-15 07:57N 34°14' E 135°07'0 0.0
2017-Apr-15 07:27N 34°14' E 135°07'0 0.0
2017-Apr-15 07:00N 34°14' E 135°07'0 0.0
2017-Apr-15 06:24N 34°14' E 135°07'0 0.0
2017-Apr-15 05:39N 34°14' E 135°07'0 0.0
2017-Apr-15 05:30N 34°14' E 135°07'0 0.0
2017-Apr-15 05:00N 34°14' E 135°07'0 0.0
2017-Apr-15 04:30N 34°14' E 135°07'0 0.0
2017-Apr-15 04:00N 34°14' E 135°07'0 0.0
2017-Apr-15 03:29N 34°14' E 135°07'0 0.0
2017-Apr-15 03:00N 34°14' E 135°07'0 0.0
2017-Apr-15 02:30N 34°14' E 135°07'0 0.0
2017-Apr-15 02:00N 34°14' E 135°07'0 0.0
2017-Apr-15 01:30N 34°14' E 135°07'0 0.0
2017-Apr-15 01:00N 34°14' E 135°07'0 0.0
2017-Apr-15 00:30N 34°14' E 135°07'0 0.0
2017-Apr-14 23:57N 34°14' E 135°07'0 0.0
2017-Apr-14 23:24N 34°14' E 135°07'0 0.0
2017-Apr-14 23:00N 34°14' E 135°07'0 0.0
2017-Apr-14 22:27N 34°14' E 135°07'0 0.0
2017-Apr-14 22:00N 34°14' E 135°07'0 0.0
2017-Apr-14 21:30N 34°14' E 135°07'0 0.0
2017-Apr-14 20:51N 34°14' E 135°07'0 0.0
2017-Apr-14 20:27N 34°14' E 135°07'0 0.0
2017-Apr-14 19:51N 34°14' E 135°07'0 0.0
2017-Apr-14 19:30N 34°14' E 135°07'0 0.0
2017-Apr-14 19:00N 34°14' E 135°07'0 0.0
2017-Apr-14 18:30N 34°14' E 135°07'0 0.0
2017-Apr-14 18:00N 34°14' E 135°07'0 0.0
2017-Apr-14 17:30N 34°14' E 135°07'0 0.0
2017-Apr-14 17:00N 34°14' E 135°07'0 0.0
2017-Apr-14 16:30N 34°14' E 135°07'0 0.0
2017-Apr-14 16:00N 34°14' E 135°07'0 0.0
2017-Apr-14 15:30N 34°14' E 135°07'0 0.0
2017-Apr-14 15:00N 34°14' E 135°07'0 0.0
2017-Apr-14 14:30N 34°14' E 135°07'0 0.0
2017-Apr-14 13:30N 34°14' E 135°07'0 0.0
2017-Apr-14 13:00N 34°14' E 135°07'0 0.0
2017-Apr-14 12:30N 34°14' E 135°07'0 0.0
2017-Apr-14 11:59N 34°14' E 135°07'0 0.0
2017-Apr-14 11:30N 34°14' E 135°07'0 0.0
2017-Apr-14 11:00N 34°14' E 135°07'0 0.0
2017-Apr-14 10:30N 34°14' E 135°07'0 0.0
2017-Apr-14 10:00N 34°14' E 135°07'0 0.0
2017-Apr-14 09:27N 34°14' E 135°07'0 0.0
2017-Apr-14 09:00N 34°14' E 135°07'  

Dump ship's entire track history